createdAt,value
2023-07-25T00:01:15.269Z,96855.67
2023-07-25T00:03:43.381Z,96843.89
2023-07-25T00:06:11.427Z,96838.66
2023-07-25T00:08:39.627Z,96838.58
2023-07-25T00:11:13.336Z,96838.34
2023-07-25T00:13:41.821Z,96833.58
2023-07-25T00:16:09.956Z,96825.20
2023-07-25T00:18:37.895Z,96829.29
2023-07-25T00:21:05.838Z,96832.80
2023-07-25T00:23:33.898Z,96832.36
2023-07-25T00:26:01.998Z,96829.36
2023-07-25T00:28:30.006Z,96823.73
2023-07-25T00:30:58.113Z,96820.44
2023-07-25T00:33:26.191Z,96813.42
2023-07-25T00:35:54.521Z,96811.29
2023-07-25T00:38:22.538Z,96816.23
2023-07-25T00:40:50.646Z,96815.27
2023-07-25T00:43:18.740Z,96809.08
2023-07-25T00:45:46.825Z,96810.66
2023-07-25T00:48:14.924Z,96809.45
2023-07-25T00:50:43.057Z,96799.73
2023-07-25T00:53:12.598Z,96807.27
2023-07-25T00:55:40.764Z,96809.41
2023-07-25T00:58:08.758Z,96807.08
2023-07-25T01:00:39.505Z,96799.70
2023-07-25T01:03:08.145Z,96789.42
2023-07-25T01:05:48.518Z,96782.05
2023-07-25T01:08:16.759Z,96785.33
2023-07-25T01:10:44.757Z,96785.70
2023-07-25T01:13:12.739Z,96789.13
2023-07-25T01:15:41.379Z,96790.27
2023-07-25T01:18:10.604Z,96787.96
2023-07-25T01:20:40.448Z,96798.02
2023-07-25T01:23:12.076Z,96813.41
2023-07-25T01:25:40.346Z,96843.45
2023-07-25T01:28:08.267Z,96851.95
2023-07-25T01:30:36.246Z,96833.09
2023-07-25T01:33:04.311Z,96846.17
2023-07-25T01:35:32.498Z,96855.79
2023-07-25T01:38:00.594Z,96852.88
2023-07-25T01:40:28.701Z,96849.65
2023-07-25T01:42:56.947Z,96842.30
2023-07-25T01:45:25.117Z,96836.20
2023-07-25T01:47:53.219Z,96840.36
2023-07-25T01:50:21.249Z,96845.24
2023-07-25T01:52:49.357Z,96822.38
2023-07-25T01:55:17.394Z,96823.48
2023-07-25T01:57:45.467Z,96835.17
2023-07-25T02:00:13.972Z,96837.63
2023-07-25T02:02:42.150Z,96831.11
2023-07-25T02:05:10.364Z,96846.12
2023-07-25T02:07:38.539Z,96872.00
2023-07-25T02:10:07.231Z,96907.07
2023-07-25T02:12:35.249Z,96941.42
2023-07-25T02:15:03.406Z,96966.05
2023-07-25T02:17:31.751Z,96978.52
2023-07-25T02:20:00.018Z,96984.73
2023-07-25T02:22:28.027Z,96974.67
2023-07-25T02:24:57.727Z,96955.13
2023-07-25T02:27:25.896Z,96929.60
2023-07-25T02:29:56.910Z,96901.35
2023-07-25T02:32:25.152Z,96894.45
2023-07-25T02:34:53.264Z,96874.64
2023-07-25T02:37:21.408Z,96869.39
2023-07-25T02:39:49.443Z,96885.38
2023-07-25T02:42:17.586Z,96890.10
2023-07-25T02:44:45.717Z,96881.52
2023-07-25T02:47:13.814Z,96867.42
2023-07-25T02:49:41.839Z,96846.41
2023-07-25T02:52:09.979Z,96832.73
2023-07-25T02:54:38.082Z,96841.63
2023-07-25T02:57:07.086Z,96835.27
2023-07-25T02:59:35.215Z,96833.72
2023-07-25T03:02:03.408Z,96843.11
2023-07-25T03:04:31.483Z,96838.98
2023-07-25T03:06:59.522Z,96844.09
2023-07-25T03:09:27.412Z,96840.24
2023-07-25T03:11:55.767Z,96833.34
2023-07-25T03:14:23.761Z,96829.11
2023-07-25T03:16:52.437Z,96833.66
2023-07-25T03:19:20.782Z,96840.17
2023-07-25T03:21:49.006Z,96838.46
2023-07-25T03:24:17.220Z,96838.41
2023-07-25T03:26:45.407Z,96834.45
2023-07-25T03:29:13.736Z,96823.59
2023-07-25T03:31:41.783Z,96824.61
2023-07-25T03:34:09.890Z,96832.08
2023-07-25T03:36:37.912Z,96844.07
2023-07-25T03:39:05.908Z,96852.39
2023-07-25T03:41:34.052Z,96861.80
2023-07-25T03:44:02.371Z,96876.20
2023-07-25T03:46:30.382Z,96887.48
2023-07-25T03:48:59.541Z,96899.88
2023-07-25T03:51:27.539Z,96915.45
2023-07-25T03:53:55.836Z,96927.37
2023-07-25T03:56:24.138Z,96993.84
2023-07-25T03:58:52.212Z,97097.34
2023-07-25T04:01:20.314Z,97129.55
2023-07-25T04:03:48.605Z,97136.95
2023-07-25T04:06:16.885Z,97104.36
2023-07-25T04:08:45.214Z,97113.77
2023-07-25T04:11:14.332Z,97147.05
2023-07-25T04:13:42.301Z,97117.83
2023-07-25T04:16:10.398Z,97085.59
2023-07-25T04:18:38.436Z,97035.89
2023-07-25T04:21:06.429Z,96950.29
2023-07-25T04:23:34.408Z,96941.30
2023-07-25T04:26:02.373Z,96974.54
2023-07-25T04:28:32.610Z,97010.55
2023-07-25T04:31:00.944Z,97013.00
2023-07-25T04:33:29.177Z,96999.61
2023-07-25T04:35:57.080Z,96982.66
2023-07-25T04:38:25.224Z,96950.81
2023-07-25T04:40:53.339Z,96914.91
2023-07-25T04:43:21.686Z,96882.64
2023-07-25T04:45:54.674Z,96862.80
2023-07-25T04:48:23.370Z,96846.00
2023-07-25T04:50:51.625Z,96843.27
2023-07-25T04:53:19.691Z,96858.14
2023-07-25T04:55:47.862Z,96860.27
2023-07-25T04:58:15.814Z,96858.84
2023-07-25T05:00:43.834Z,96868.12
2023-07-25T05:03:11.994Z,96877.20
2023-07-25T05:05:40.729Z,96896.62
2023-07-25T05:08:08.955Z,96913.23
2023-07-25T05:10:37.200Z,96923.14
2023-07-25T05:13:05.497Z,96919.25
2023-07-25T05:15:33.715Z,96911.35
2023-07-25T05:18:01.990Z,96897.76
2023-07-25T05:20:30.272Z,96885.73
2023-07-25T05:22:58.549Z,96882.89
2023-07-25T05:25:26.721Z,96879.09
2023-07-25T05:27:54.841Z,96865.27
2023-07-25T05:30:22.919Z,96850.36
2023-07-25T05:32:51.336Z,96847.98
2023-07-25T05:35:19.497Z,96856.59
2023-07-25T05:37:47.807Z,96852.53
2023-07-25T05:40:15.994Z,96847.19
2023-07-25T05:42:43.919Z,96856.23
2023-07-25T05:45:11.964Z,96859.64
2023-07-25T05:47:40.107Z,96851.40
2023-07-25T05:50:09.268Z,96844.43
2023-07-25T05:52:37.463Z,96834.06
2023-07-25T05:55:05.815Z,96824.46
2023-07-25T05:57:33.935Z,96820.77
2023-07-25T06:00:02.572Z,96808.05
2023-07-25T06:02:33.307Z,96812.33
2023-07-25T06:05:01.699Z,96813.44
2023-07-25T06:07:30.024Z,96813.45
2023-07-25T06:09:58.242Z,96813.14
2023-07-25T06:12:26.978Z,96815.25
2023-07-25T06:14:55.319Z,96813.05
2023-07-25T06:17:23.539Z,96803.84
2023-07-25T06:19:51.886Z,96800.24
2023-07-25T06:22:20.091Z,96791.67
2023-07-25T06:24:48.991Z,96775.24
2023-07-25T06:27:17.082Z,96771.73
2023-07-25T06:29:45.336Z,96764.05
2023-07-25T06:32:13.585Z,96757.49
2023-07-25T06:34:41.846Z,96753.41
2023-07-25T06:37:10.359Z,96744.11
2023-07-25T06:39:38.536Z,96733.36
2023-07-25T06:42:07.769Z,96728.21
2023-07-25T06:44:37.865Z,96725.42
2023-07-25T06:47:06.553Z,96718.70
2023-07-25T06:49:34.880Z,96712.67
2023-07-25T06:52:03.536Z,96713.16
2023-07-25T06:54:31.855Z,96712.49
2023-07-25T06:57:00.344Z,96708.30
2023-07-25T06:59:31.054Z,96704.25
2023-07-25T07:01:59.305Z,96700.16
2023-07-25T07:04:27.668Z,96703.96
2023-07-25T07:06:55.950Z,96708.02
2023-07-25T07:09:24.308Z,96709.73
2023-07-25T07:11:52.560Z,96711.91
2023-07-25T07:14:20.736Z,96711.55
2023-07-25T07:16:48.941Z,96713.55
2023-07-25T07:19:17.408Z,96715.59
2023-07-25T07:21:45.771Z,96716.70
2023-07-25T07:24:14.116Z,96715.66
2023-07-25T07:26:42.326Z,96711.09
2023-07-25T07:29:12.817Z,96703.70
2023-07-25T07:31:41.322Z,96702.34
2023-07-25T07:34:17.129Z,96705.87
2023-07-25T07:36:46.460Z,96708.60
2023-07-25T07:39:14.879Z,96701.44
2023-07-25T07:41:43.145Z,96696.11
2023-07-25T07:44:11.304Z,96697.85
2023-07-25T07:46:39.632Z,96698.93
2023-07-25T07:49:07.743Z,96696.16
2023-07-25T07:51:35.976Z,96691.41
2023-07-25T07:54:04.232Z,96692.19
2023-07-25T07:56:32.738Z,96686.91
2023-07-25T07:59:01.118Z,96681.05
2023-07-25T08:01:30.172Z,96674.58
2023-07-25T08:03:59.009Z,96668.13
2023-07-25T08:06:29.329Z,96663.58
2023-07-25T08:08:57.883Z,96663.40
2023-07-25T08:11:26.105Z,96657.55
2023-07-25T08:13:54.535Z,96659.45
2023-07-25T08:16:23.525Z,96658.11
2023-07-25T08:18:51.848Z,96653.05
2023-07-25T08:21:20.212Z,96647.50
2023-07-25T08:23:48.534Z,96650.74
2023-07-25T08:26:17.012Z,96649.91
2023-07-25T08:28:45.350Z,96647.88
2023-07-25T08:31:13.609Z,96638.98
2023-07-25T08:33:44.160Z,96639.38
2023-07-25T08:36:12.465Z,96637.34
2023-07-25T08:38:42.437Z,96635.36
2023-07-25T08:41:14.259Z,96631.63
2023-07-25T08:43:44.612Z,96627.17
2023-07-25T08:46:15.053Z,96625.95
2023-07-25T08:48:44.094Z,96628.74
2023-07-25T08:51:21.438Z,96624.27
2023-07-25T08:54:08.040Z,96625.36
2023-07-25T08:56:36.891Z,96622.21
2023-07-25T08:59:06.570Z,96627.02
2023-07-25T09:01:35.900Z,96629.86
2023-07-25T09:04:05.574Z,96627.10
2023-07-25T09:06:34.657Z,96619.34
2023-07-25T09:09:02.973Z,96613.09
2023-07-25T09:11:31.452Z,96608.55
2023-07-25T09:14:00.446Z,96611.23
2023-07-25T09:16:28.983Z,96620.64
2023-07-25T09:18:58.030Z,96627.73
2023-07-25T09:21:26.708Z,96627.39
2023-07-25T09:24:00.620Z,96633.70
2023-07-25T09:26:32.274Z,96630.20
2023-07-25T09:29:02.057Z,96634.46
2023-07-25T09:31:30.528Z,96642.19
2023-07-25T09:33:59.100Z,96634.46
2023-07-25T09:36:31.790Z,96632.74
2023-07-25T09:39:00.514Z,96632.72
2023-07-25T09:41:29.135Z,96629.75
2023-07-25T09:44:06.567Z,96630.66
2023-07-25T09:46:34.969Z,96635.78
2023-07-25T09:49:07.773Z,96632.98
2023-07-25T09:51:36.466Z,96628.66
2023-07-25T09:54:09.209Z,96633.92
2023-07-25T09:56:39.059Z,96632.42
2023-07-25T09:59:07.829Z,96624.31
2023-07-25T10:01:39.942Z,96625.24
2023-07-25T10:04:11.337Z,96620.17
2023-07-25T10:06:42.553Z,96617.98
2023-07-25T10:09:13.030Z,96607.98
2023-07-25T10:11:41.997Z,96605.86
2023-07-25T10:14:10.817Z,96603.27
2023-07-25T10:16:40.327Z,96596.58
2023-07-25T10:19:09.040Z,96589.92
2023-07-25T10:21:49.956Z,96590.09
2023-07-25T10:24:20.217Z,96588.77
2023-07-25T10:26:59.862Z,96583.89
2023-07-25T10:29:47.240Z,96576.83
2023-07-25T10:32:18.224Z,96574.45
2023-07-25T10:35:04.394Z,96576.39
2023-07-25T10:37:41.893Z,96571.16
2023-07-25T10:40:18.665Z,96560.91
2023-07-25T10:45:30.929Z,96550.73
2023-07-25T10:48:01.732Z,96534.27
2023-07-25T10:50:53.263Z,96519.44
2023-07-25T10:53:24.082Z,96527.35
2023-07-25T10:56:07.783Z,96529.83
2023-07-25T10:58:41.360Z,96535.56
2023-07-25T11:01:37.617Z,96537.61
2023-07-25T11:04:26.033Z,96536.72
2023-07-25T11:06:59.552Z,96527.16
2023-07-25T11:09:28.408Z,96528.47
2023-07-25T11:11:57.350Z,96529.44
2023-07-25T11:14:26.089Z,96526.98
2023-07-25T11:16:55.686Z,96518.65
2023-07-25T11:19:28.067Z,96518.92
2023-07-25T11:21:56.550Z,96520.41
2023-07-25T11:24:24.958Z,96516.41
2023-07-25T11:26:53.419Z,96515.69
2023-07-25T11:29:23.754Z,96516.48
2023-07-25T11:31:52.104Z,96510.91
2023-07-25T11:34:21.818Z,96508.15
2023-07-25T11:36:50.216Z,96505.92
2023-07-25T11:39:19.278Z,96494.60
2023-07-25T11:41:47.879Z,96490.66
2023-07-25T11:44:18.250Z,96484.36
2023-07-25T11:46:53.965Z,96472.33
2023-07-25T11:49:40.168Z,96465.75
2023-07-25T11:52:11.730Z,96452.67
2023-07-25T11:54:40.236Z,96444.05
2023-07-25T11:57:09.966Z,96432.20
2023-07-25T11:59:42.144Z,96420.90
2023-07-25T12:02:13.794Z,96411.48
2023-07-25T12:04:46.431Z,96410.65
2023-07-25T12:07:15.264Z,96410.59
2023-07-25T12:09:51.977Z,96412.89
2023-07-25T12:12:23.441Z,96408.27
2023-07-25T12:14:59.516Z,96411.31
2023-07-25T12:17:46.720Z,96418.55
2023-07-25T12:20:16.455Z,96428.85
2023-07-25T12:22:46.511Z,96438.84
2023-07-25T12:25:20.001Z,96446.83
2023-07-25T12:27:49.676Z,96441.46
2023-07-25T12:30:18.062Z,96441.33
2023-07-25T12:32:46.401Z,96434.88
2023-07-25T12:35:14.625Z,96430.48
2023-07-25T12:37:42.847Z,96422.15
2023-07-25T12:40:11.664Z,96417.98
2023-07-25T12:42:39.903Z,96415.23
2023-07-25T12:45:11.027Z,96416.33
2023-07-25T12:47:40.246Z,96415.23
2023-07-25T12:50:10.134Z,96420.26
2023-07-25T12:52:38.920Z,96420.10
2023-07-25T12:55:08.367Z,96411.94
2023-07-25T12:57:38.392Z,96405.09
2023-07-25T13:00:08.998Z,96408.27
2023-07-25T13:02:38.264Z,96404.00
2023-07-25T13:05:08.191Z,96397.40
2023-07-25T13:07:36.708Z,96400.64
2023-07-25T13:10:07.885Z,96397.81
2023-07-25T13:12:36.322Z,96399.75
2023-07-25T13:15:08.826Z,96394.81
2023-07-25T13:17:37.204Z,96389.17
2023-07-25T13:20:10.058Z,96386.19
2023-07-25T13:22:38.552Z,96387.66
2023-07-25T13:25:07.256Z,96386.84
2023-07-25T13:27:35.465Z,96380.90
2023-07-25T13:30:04.160Z,96371.98
2023-07-25T13:32:32.429Z,96370.79
2023-07-25T13:35:00.743Z,96372.17
2023-07-25T13:37:29.234Z,96379.52
2023-07-25T13:39:57.537Z,96377.45
2023-07-25T13:42:27.184Z,96374.81
2023-07-25T13:44:55.407Z,96373.99
2023-07-25T13:47:23.756Z,96373.42
2023-07-25T13:49:52.140Z,96380.46
2023-07-25T13:52:20.294Z,96390.09
2023-07-25T13:54:48.631Z,96396.13
2023-07-25T13:57:17.175Z,96395.77
2023-07-25T13:59:45.800Z,96393.90
2023-07-25T14:02:14.142Z,96392.40
2023-07-25T14:04:42.574Z,96389.09
2023-07-25T14:07:11.685Z,96378.26
2023-07-25T14:09:40.219Z,96376.38
2023-07-25T14:12:08.963Z,96371.49
2023-07-25T14:14:37.538Z,96345.44
2023-07-25T14:17:08.141Z,96328.27
2023-07-25T14:19:36.408Z,96307.69
2023-07-25T14:22:05.664Z,96295.52
2023-07-25T14:24:34.959Z,96282.87
2023-07-25T14:27:03.477Z,96281.60
2023-07-25T14:29:31.727Z,96291.52
2023-07-25T14:32:00.005Z,96305.56
2023-07-25T14:34:28.625Z,96305.59
2023-07-25T14:36:57.221Z,96306.96
2023-07-25T14:39:25.873Z,96302.70
2023-07-25T14:41:54.726Z,96308.80
2023-07-25T14:44:23.271Z,96311.84
2023-07-25T14:46:51.991Z,96310.98
2023-07-25T14:49:20.510Z,96308.02
2023-07-25T14:51:48.806Z,96319.17
2023-07-25T14:54:17.917Z,96345.49
2023-07-25T14:56:46.577Z,96376.02
2023-07-25T14:59:14.880Z,96410.83
2023-07-25T15:01:43.318Z,96465.57
2023-07-25T15:04:11.969Z,96536.98
2023-07-25T15:06:41.087Z,96586.16
2023-07-25T15:09:09.956Z,96655.65
2023-07-25T15:11:38.638Z,96651.59
2023-07-25T15:14:06.920Z,96656.97
2023-07-25T15:16:35.775Z,96647.45
2023-07-25T15:19:07.110Z,96635.14
2023-07-25T15:21:35.581Z,96616.46
2023-07-25T15:24:04.454Z,96604.80
2023-07-25T15:26:33.545Z,96604.16
2023-07-25T15:29:02.348Z,96610.04
2023-07-25T15:31:32.145Z,96602.31
2023-07-25T15:34:00.613Z,96605.23
2023-07-25T15:36:28.834Z,96614.19
2023-07-25T15:38:57.098Z,96603.66
2023-07-25T15:41:25.798Z,96586.77
2023-07-25T15:43:54.160Z,96586.98
2023-07-25T15:46:22.441Z,96599.18
2023-07-25T15:48:50.682Z,96622.56
2023-07-25T15:51:20.570Z,96620.83
2023-07-25T15:53:48.746Z,96593.41
2023-07-25T15:56:17.135Z,96570.96
2023-07-25T15:58:45.695Z,96566.80
2023-07-25T16:01:14.560Z,96571.58
2023-07-25T16:03:47.214Z,96571.96
2023-07-25T16:06:15.586Z,96561.31
2023-07-25T16:08:43.993Z,96539.08
2023-07-25T16:11:12.229Z,96521.46
2023-07-25T16:13:41.304Z,96503.56
2023-07-25T16:16:09.714Z,96488.02
2023-07-25T16:18:38.220Z,96485.80
2023-07-25T16:21:06.519Z,96486.71
2023-07-25T16:23:34.727Z,96489.77
2023-07-25T16:26:04.506Z,96493.81
2023-07-25T16:28:33.329Z,96500.20
2023-07-25T16:31:30.622Z,96516.26
2023-07-25T16:33:51.025Z,96523.05
2023-07-25T16:36:19.212Z,96524.98
2023-07-25T16:38:47.633Z,96539.77
2023-07-25T16:41:15.732Z,96545.05
2023-07-25T16:43:44.233Z,96552.19
2023-07-25T16:46:12.517Z,96567.50
2023-07-25T16:48:40.633Z,96580.75
2023-07-25T16:51:08.995Z,96605.89
2023-07-25T16:53:37.154Z,96614.27
2023-07-25T16:56:06.266Z,96615.85
2023-07-25T16:58:35.041Z,96597.29
2023-07-25T17:01:04.829Z,96573.15
2023-07-25T17:03:34.229Z,96549.18
2023-07-25T17:06:05.066Z,96539.53
2023-07-25T17:08:33.881Z,96555.71
2023-07-25T17:11:06.137Z,96564.91
2023-07-25T17:13:35.189Z,96568.15
2023-07-25T17:16:03.480Z,96577.40
2023-07-25T17:18:31.686Z,96570.98
2023-07-25T17:20:59.708Z,96559.09
2023-07-25T17:23:28.083Z,96548.92
2023-07-25T17:25:56.594Z,96536.41
2023-07-25T17:28:24.793Z,96531.77
2023-07-25T17:30:52.773Z,96529.71
2023-07-25T17:33:20.931Z,96529.94
2023-07-25T17:35:49.074Z,96519.48
2023-07-25T17:38:19.027Z,96512.73
2023-07-25T17:40:48.734Z,96516.77
2023-07-25T17:43:17.138Z,96527.11
2023-07-25T17:45:45.503Z,96532.00
2023-07-25T17:48:14.942Z,96536.48
2023-07-25T17:50:43.065Z,96538.35
2023-07-25T17:53:11.796Z,96539.73
2023-07-25T17:55:41.692Z,96529.91
2023-07-25T17:58:12.149Z,96517.06
2023-07-25T18:00:40.704Z,96506.01
2023-07-25T18:03:09.093Z,96505.73
2023-07-25T18:05:37.314Z,96514.15
2023-07-25T18:08:05.702Z,96510.25
2023-07-25T18:10:33.736Z,96495.73
2023-07-25T18:13:01.773Z,96479.44
2023-07-25T18:15:30.764Z,96470.05
2023-07-25T18:18:00.063Z,96467.36
2023-07-25T18:20:29.138Z,96452.59
2023-07-25T18:22:57.248Z,96451.10
2023-07-25T18:25:25.485Z,96448.45
2023-07-25T18:27:53.595Z,96449.83
2023-07-25T18:30:21.652Z,96448.86
2023-07-25T18:32:49.930Z,96453.30
2023-07-25T18:35:18.254Z,96453.89
2023-07-25T18:37:49.346Z,96455.80
2023-07-25T18:40:18.471Z,96457.89
2023-07-25T18:42:46.715Z,96474.86
2023-07-25T18:45:15.497Z,96478.83
2023-07-25T18:47:43.638Z,96477.45
2023-07-25T18:50:11.885Z,96468.71
2023-07-25T18:52:39.989Z,96472.82
2023-07-25T18:55:10.496Z,96483.98
2023-07-25T18:57:38.795Z,96485.23
2023-07-25T19:00:08.398Z,96479.89
2023-07-25T19:02:36.559Z,96491.19
2023-07-25T19:05:05.206Z,96488.34
2023-07-25T19:07:33.352Z,96496.14
2023-07-25T19:10:01.494Z,96504.72
2023-07-25T19:12:29.908Z,96504.52
2023-07-25T19:14:58.186Z,96499.59
2023-07-25T19:17:26.387Z,96495.14
2023-07-25T19:19:54.487Z,96483.77
2023-07-25T19:22:22.529Z,96470.11
2023-07-25T19:24:50.633Z,96478.32
2023-07-25T19:27:18.774Z,96495.27
2023-07-25T19:29:46.742Z,96492.66
2023-07-25T19:32:14.930Z,96483.73
2023-07-25T19:34:42.962Z,96478.86
2023-07-25T19:37:11.124Z,96469.72
2023-07-25T19:39:39.198Z,96461.61
2023-07-25T19:42:07.289Z,96461.31
2023-07-25T19:44:36.146Z,96453.64
2023-07-25T19:47:06.103Z,96452.61
2023-07-25T19:49:34.394Z,96455.29
2023-07-25T19:52:02.538Z,96450.38
2023-07-25T19:54:31.535Z,96456.25
2023-07-25T19:56:59.590Z,96467.24
2023-07-25T19:59:27.822Z,96461.42
2023-07-25T20:01:55.868Z,96453.20
2023-07-25T20:04:23.697Z,96450.14
2023-07-25T20:06:51.918Z,96463.16
2023-07-25T20:09:19.857Z,96460.71
2023-07-25T20:11:47.842Z,96454.20
2023-07-25T20:14:15.780Z,96450.78
2023-07-25T20:16:43.956Z,96444.29
2023-07-25T20:19:11.894Z,96443.27
2023-07-25T20:21:39.822Z,96440.11
2023-07-25T20:24:12.722Z,96440.29
2023-07-25T20:26:41.382Z,96441.73
2023-07-25T20:29:09.637Z,96439.02
2023-07-25T20:31:37.657Z,96440.73
2023-07-25T20:34:05.650Z,96434.35
2023-07-25T20:36:34.064Z,96425.21
2023-07-25T20:39:02.451Z,96426.95
2023-07-25T20:41:30.581Z,96426.86
2023-07-25T20:43:59.048Z,96417.21
2023-07-25T20:46:27.227Z,96411.98
2023-07-25T20:48:55.313Z,96413.13
2023-07-25T20:51:23.805Z,96415.23
2023-07-25T20:53:52.562Z,96418.63
2023-07-25T20:56:21.023Z,96425.98
2023-07-25T20:58:49.037Z,96426.05
2023-07-25T21:01:17.561Z,96425.95
2023-07-25T21:03:45.725Z,96434.75
2023-07-25T21:06:13.893Z,96440.83
2023-07-25T21:08:42.039Z,96446.13
2023-07-25T21:11:10.235Z,96451.64
2023-07-25T21:13:38.414Z,96461.94
2023-07-25T21:16:06.516Z,96462.02
2023-07-25T21:18:34.714Z,96462.77
2023-07-25T21:21:02.949Z,96460.70
2023-07-25T21:23:31.177Z,96457.36
2023-07-25T21:25:59.213Z,96452.34
2023-07-25T21:28:27.302Z,96443.70
2023-07-25T21:30:55.381Z,96446.15
2023-07-25T21:33:25.274Z,96449.64
2023-07-25T21:36:11.077Z,96451.13
2023-07-25T21:38:40.457Z,96450.92
2023-07-25T21:41:14.563Z,96451.18
2023-07-25T21:43:43.565Z,96451.74
2023-07-25T21:46:12.069Z,96443.71
2023-07-25T21:48:40.103Z,96437.27
2023-07-25T21:51:08.892Z,96430.52
2023-07-25T21:53:36.917Z,96425.89
2023-07-25T21:56:08.485Z,96421.91
2023-07-25T21:58:36.814Z,96433.59
2023-07-25T22:01:05.461Z,96445.60
2023-07-25T22:03:33.904Z,96439.50
2023-07-25T22:06:02.124Z,96431.56
2023-07-25T22:08:30.137Z,96428.98
2023-07-25T22:10:58.412Z,96425.32
2023-07-25T22:13:26.551Z,96430.02
2023-07-25T22:15:54.819Z,96421.91
2023-07-25T22:18:23.112Z,96419.02
2023-07-25T22:20:53.109Z,96418.92
2023-07-25T22:23:22.005Z,96421.12
2023-07-25T22:25:50.365Z,96422.71
2023-07-25T22:28:18.612Z,96417.76
2023-07-25T22:30:46.766Z,96407.23
2023-07-25T22:33:14.875Z,96398.02
2023-07-25T22:35:42.874Z,96391.43
2023-07-25T22:38:11.089Z,96385.73
2023-07-25T22:40:40.013Z,96379.37
2023-07-25T22:43:07.998Z,96369.89
2023-07-25T22:45:36.053Z,96362.96
2023-07-25T22:48:04.407Z,96364.45
2023-07-25T22:50:32.371Z,96355.98
2023-07-25T22:53:00.354Z,96343.29
2023-07-25T22:55:28.404Z,96337.75
2023-07-25T22:57:56.507Z,96339.02
2023-07-25T23:00:24.635Z,96348.34
2023-07-25T23:02:53.451Z,96348.63
2023-07-25T23:05:21.628Z,96343.25
2023-07-25T23:07:49.812Z,96338.91
2023-07-25T23:10:17.851Z,96334.88
2023-07-25T23:12:45.834Z,96334.00
2023-07-25T23:15:14.641Z,96334.79
2023-07-25T23:17:42.772Z,96332.02
2023-07-25T23:20:12.122Z,96333.36
2023-07-25T23:22:40.258Z,96338.86
2023-07-25T23:25:08.369Z,96333.98
2023-07-25T23:27:36.310Z,96337.59
2023-07-25T23:30:04.860Z,96345.38
2023-07-25T23:32:32.836Z,96350.61
2023-07-25T23:35:01.236Z,96348.75
2023-07-25T23:37:29.992Z,96346.90
2023-07-25T23:39:58.103Z,96349.00
2023-07-25T23:42:26.219Z,96348.06
2023-07-25T23:44:54.325Z,96345.23
2023-07-25T23:47:22.371Z,96346.60
2023-07-25T23:49:50.560Z,96350.60
2023-07-25T23:52:18.809Z,96346.23
2023-07-25T23:54:46.920Z,96346.52
2023-07-25T23:57:15.109Z,96347.86
2023-07-25T23:59:43.285Z,96350.83
